Linda Fortune — 3FOW6 — position and weather

sailwx.info

Track history (hours):
 
Tides and Currents Weather Stations Pressure Air Temp Water Temp Dewpoint Dewpoint Depression Visibility Wind Speed Wind Dir Waves Ship Positions

Linda Fortune

Last reported at 2015-May-27 05:21 UTC. Time now 2015-May-27 11:50 UTC.
Position N 31°36' E 121°27'.

Length 281 m; draft 7.5 m.

Type: Cargo ship. MMSI: 352793000.

Date/timePositionNaut miles runAvg speedWind from/ knotsBaromVisibWave heightAir tempDewpointWater temp
2015-May-27 05:21N 31°36' E 121°27'0 0.0
2015-May-27 03:21N 31°36' E 121°27'0 0.0
2015-May-27 02:33N 31°36' E 121°27'0 0.0
2015-May-27 00:33N 31°36' E 121°27'0 0.0
2015-May-26 16:27N 31°36' E 121°27'0 0.0
2015-May-26 12:21N 31°36' E 121°27'0 0.0
2015-May-26 11:27N 31°36' E 121°27'0 0.0
2015-May-26 10:27N 31°36' E 121°27'0 0.0
2015-May-26 09:21N 31°36' E 121°27'0 0.0
2015-May-26 08:27N 31°36' E 121°27'0 0.0
2015-May-26 07:21N 31°36' E 121°27'0 0.0
2015-May-26 06:33N 31°36' E 121°27'0 0.0
2015-May-26 05:33N 31°36' E 121°27'0 0.0
2015-May-26 04:33N 31°36' E 121°27'0 0.0
2015-May-26 03:33N 31°36' E 121°27'0 0.0
2015-May-26 02:33N 31°36' E 121°27'0 0.0
2015-May-26 01:33N 31°36' E 121°27'0 0.0
2015-May-26 00:33N 31°36' E 121°27'0 0.0
2015-May-25 23:33N 31°36' E 121°27'0 0.0
2015-May-25 22:33N 31°36' E 121°27'0 0.0
2015-May-25 21:30N 31°36' E 121°27'0 0.0
2015-May-25 20:33N 31°36' E 121°27'0 0.0
2015-May-25 19:33N 31°36' E 121°27'0 0.0
2015-May-25 18:30N 31°36' E 121°27'0 0.0
2015-May-25 17:33N 31°36' E 121°27'0 0.0
2015-May-25 16:33N 31°36' E 121°27'0 0.0
2015-May-25 15:33N 31°36' E 121°27'0 0.1
2015-May-25 14:33N 31°35' E 121°27'3 2.6
2015-May-25 13:33N 31°34' E 121°29'0 0.2
2015-May-25 12:31N 31°34' E 121°29'0 0.2
2015-May-25 11:31N 31°34' E 121°29'0 0.1
2015-May-25 10:32N 31°34' E 121°29'0 0.1
2015-May-25 09:31N 31°34' E 121°29'0 0.1
2015-May-25 08:31N 31°34' E 121°29'0 0.0
2015-May-25 07:32N 31°34' E 121°29'5 4.8
2015-May-25 06:33N 31°32' E 121°34'4 3.6
2015-May-25 05:34N 31°30' E 121°30'9 9.3
2015-May-25 04:33N 31°33' E 121°20'1010.1
2015-May-25 03:33N 31°40' E 121°12'2 1.3
2015-May-25 02:09N 31°41' E 121°10'0 0.0
2015-May-24 21:33N 31°41' E 121°10'0 0.0
2015-May-24 20:27N 31°41' E 121°10'0 0.0
2015-May-24 19:27N 31°41' E 121°10'0 0.0
2015-May-24 18:30N 31°41' E 121°10'0 0.0
2015-May-24 17:33N 31°41' E 121°10'0 0.0
2015-May-24 16:30N 31°41' E 121°10'0 0.0
2015-May-24 15:30N 31°41' E 121°10'0 0.0
2015-May-24 14:30N 31°41' E 121°10'0 0.0
2015-May-24 13:33N 31°41' E 121°10'0 0.0
2015-May-24 12:27N 31°41' E 121°10'0 0.0
2015-May-24 11:33N 31°41' E 121°10'0 0.0
2015-May-24 10:30N 31°41' E 121°10'0 0.0
2015-May-24 09:24N 31°41' E 121°10'0 0.0
2015-May-24 08:33N 31°41' E 121°10'0 0.0
2015-May-24 07:30N 31°41' E 121°10'0 0.0
2015-May-24 06:30N 31°41' E 121°10'0 0.0
2015-May-24 05:33N 31°41' E 121°10'0 0.0
2015-May-24 04:33N 31°41' E 121°10'0 0.0
2015-May-24 03:30N 31°41' E 121°10'0 0.0
2015-May-24 02:30N 31°41' E 121°10'0 0.0
2015-May-24 01:30N 31°41' E 121°10'0 0.0
2015-May-24 00:30N 31°41' E 121°10'0 0.0
2015-May-23 23:30N 31°41' E 121°10'0 0.0
2015-May-23 22:18N 31°41' E 121°10'0 0.0
2015-May-23 21:33N 31°41' E 121°10'0 0.0
2015-May-23 20:33N 31°41' E 121°10'0 0.0
2015-May-23 19:33N 31°41' E 121°10'0 0.0
2015-May-23 18:27N 31°41' E 121°10'0 0.0
2015-May-23 17:33N 31°41' E 121°10'0 0.0
2015-May-23 16:33N 31°41' E 121°10'0 0.0
2015-May-23 15:33N 31°41' E 121°10'0 0.0
2015-May-23 14:33N 31°41' E 121°10'0 0.0
2015-May-23 13:24N 31°41' E 121°10'0 0.0
2015-May-23 12:27N 31°41' E 121°10'0 0.0
2015-May-23 11:33N 31°41' E 121°10'5 5.4
2015-May-23 10:33N 31°38' E 121°15'1211.6
2015-May-23 09:33N 31°30' E 121°25'1010.1
2015-May-23 08:33N 31°24' E 121°34'9 9.1
2015-May-23 07:33N 31°19' E 121°44'8 8.4
2015-May-23 06:33N 31°16' E 121°53'9 8.9
2015-May-23 05:33N 31°14' E 122°03'8 8.1
2015-May-23 04:33N 31°11' E 122°11'9 9.0
2015-May-23 03:33N 31°06' E 122°20'9 9.2
2015-May-23 02:33N 31°07' E 122°31'8 8.2
2015-May-23 01:31N 31°08' E 122°41'1 0.4
2015-May-23 00:10N 31°09' E 122°41'0 0.1
2015-May-22 23:28N 31°09' E 122°41'0 0.0
2015-May-22 22:28N 31°09' E 122°41'0 0.0
2015-May-22 21:22N 31°09' E 122°41'0 0.1
2015-May-22 20:22N 31°09' E 122°41'0 0.0
2015-May-22 13:25N 31°09' E 122°41'0 0.1
2015-May-22 12:25N 31°09' E 122°41'0 0.0
2015-May-22 11:31N 31°09' E 122°41'0 0.0
2015-May-22 08:28N 31°09' E 122°41'0 0.1
2015-May-22 07:34N 31°09' E 122°41'0 0.1
2015-May-22 06:28N 31°09' E 122°41'0 0.1
2015-May-22 05:28N 31°09' E 122°41'0 0.0
2015-May-22 03:13N 31°09' E 122°41'0 0.1
2015-May-22 00:13N 31°09' E 122°41'0 0.0
2015-May-21 22:31N 31°09' E 122°41'0 0.0
2015-May-21 21:34N 31°09' E 122°41'0 0.1
2015-May-21 20:31N 31°09' E 122°41'0 0.1
2015-May-21 19:28N 31°09' E 122°41'0 0.1
2015-May-21 18:31N 31°09' E 122°41'0 0.1
2015-May-21 12:04N 31°09' E 122°41'0 0.0
2015-May-21 10:28N 31°09' E 122°41'0 0.1
2015-May-21 06:31N 31°09' E 122°41'0 0.0
2015-May-20 17:04N 31°09' E 122°41'0 0.1
2015-May-20 14:25N 31°09' E 122°41'0 0.1
2015-May-20 13:28N 31°09' E 122°41'0 0.1
2015-May-20 10:19N 31°09' E 122°41'0 0.1
2015-May-20 09:31N 31°09' E 122°41'0 0.1
2015-May-20 08:31N 31°09' E 122°41'0 0.1
2015-May-20 07:22N 31°09' E 122°41'0 0.1
2015-May-20 06:31N 31°09' E 122°41'0 0.1
2015-May-20 05:25N 31°09' E 122°41'0 0.1
2015-May-20 04:34N 31°09' E 122°41'0 0.1
2015-May-20 03:28N 31°09' E 122°41'0 0.1
2015-May-20 02:07N 31°09' E 122°41'0 0.1
2015-May-20 01:31N 31°09' E 122°41'0 0.1
2015-May-19 21:19N 31°09' E 122°41'0 0.1
2015-May-19 20:22N 31°09' E 122°41'0 0.0
2015-May-19 19:16N 31°09' E 122°41'0 0.1
2015-May-19 18:34N 31°09' E 122°41'0 0.1
2015-May-19 17:19N 31°09' E 122°41'0 0.2
2015-May-19 16:34N 31°09' E 122°41'0 0.1
2015-May-19 14:28N 31°09' E 122°41'0 0.1
2015-May-19 12:22N 31°09' E 122°41'0 0.2
2015-May-19 11:34N 31°09' E 122°41'0 0.1
2015-May-19 10:31N 31°09' E 122°41'0 0.1
2015-May-19 09:34N 31°09' E 122°41'0 0.0
2015-May-19 08:34N 31°09' E 122°41'0 0.1
2015-May-19 06:13N 31°09' E 122°41'0 0.1
2015-May-19 05:25N 31°09' E 122°41'0 0.1
2015-May-19 03:19N 31°09' E 122°41'0 0.1
2015-May-18 23:10N 31°09' E 122°41'0 0.2
2015-May-18 22:31N 31°09' E 122°41'0 0.1
2015-May-18 21:16N 31°09' E 122°41'0 0.0
2015-May-18 20:28N 31°09' E 122°41'0 0.1
2015-May-18 19:28N 31°09' E 122°41'0 0.1
2015-May-18 13:07N 31°09' E 122°41'0 0.1
2015-May-18 12:19N 31°09' E 122°41'0 0.0
2015-May-17 21:10N 31°09' E 122°41'0 0.1
2015-May-17 20:22N 31°09' E 122°41'0 0.1
2015-May-17 18:04N 31°09' E 122°41'0 0.0
2015-May-17 17:28N 31°09' E 122°41'0 0.1
2015-May-17 11:34N 31°09' E 122°41'0 0.2
2015-May-17 10:31N 31°09' E 122°41'0 0.2
2015-May-17 09:31N 31°09' E 122°41'0 0.1
2015-May-17 08:31N 31°09' E 122°41'0 0.1
2015-May-17 07:31N 31°09' E 122°41'0 0.0
2015-May-17 06:31N 31°09' E 122°41'0 0.1
2015-May-17 05:34N 31°09' E 122°41'  
Track history (hours):
 
Tides and Currents Weather Stations Pressure Air Temp Water Temp Dewpoint Dewpoint Depression Visibility Wind Speed Wind Dir Waves Ship Positions

Linda Fortune

Last reported at 2015-May-27 05:21 UTC. Time now 2015-May-27 11:50 UTC.
Position N 31°36' E 121°27'.

Length 281 m; draft 7.5 m.

Type: Cargo ship. MMSI: 352793000.

Date/timePositionNaut miles runAvg speedWind from/ knotsBaromVisibWave heightAir tempDewpointWater temp
2015-May-27 05:21N 31°36' E 121°27'0 0.0
2015-May-27 03:21N 31°36' E 121°27'0 0.0
2015-May-27 02:33N 31°36' E 121°27'0 0.0
2015-May-27 00:33N 31°36' E 121°27'0 0.0
2015-May-26 16:27N 31°36' E 121°27'0 0.0
2015-May-26 12:21N 31°36' E 121°27'0 0.0
2015-May-26 11:27N 31°36' E 121°27'0 0.0
2015-May-26 10:27N 31°36' E 121°27'0 0.0
2015-May-26 09:21N 31°36' E 121°27'0 0.0
2015-May-26 08:27N 31°36' E 121°27'0 0.0
2015-May-26 07:21N 31°36' E 121°27'0 0.0
2015-May-26 06:33N 31°36' E 121°27'0 0.0
2015-May-26 05:33N 31°36' E 121°27'0 0.0
2015-May-26 04:33N 31°36' E 121°27'0 0.0
2015-May-26 03:33N 31°36' E 121°27'0 0.0
2015-May-26 02:33N 31°36' E 121°27'0 0.0
2015-May-26 01:33N 31°36' E 121°27'0 0.0
2015-May-26 00:33N 31°36' E 121°27'0 0.0
2015-May-25 23:33N 31°36' E 121°27'0 0.0
2015-May-25 22:33N 31°36' E 121°27'0 0.0
2015-May-25 21:30N 31°36' E 121°27'0 0.0
2015-May-25 20:33N 31°36' E 121°27'0 0.0
2015-May-25 19:33N 31°36' E 121°27'0 0.0
2015-May-25 18:30N 31°36' E 121°27'0 0.0
2015-May-25 17:33N 31°36' E 121°27'0 0.0
2015-May-25 16:33N 31°36' E 121°27'0 0.0
2015-May-25 15:33N 31°36' E 121°27'0 0.1
2015-May-25 14:33N 31°35' E 121°27'3 2.6
2015-May-25 13:33N 31°34' E 121°29'0 0.2
2015-May-25 12:31N 31°34' E 121°29'0 0.2
2015-May-25 11:31N 31°34' E 121°29'0 0.1
2015-May-25 10:32N 31°34' E 121°29'0 0.1
2015-May-25 09:31N 31°34' E 121°29'0 0.1
2015-May-25 08:31N 31°34' E 121°29'0 0.0
2015-May-25 07:32N 31°34' E 121°29'5 4.8
2015-May-25 06:33N 31°32' E 121°34'4 3.6
2015-May-25 05:34N 31°30' E 121°30'9 9.3
2015-May-25 04:33N 31°33' E 121°20'1010.1
2015-May-25 03:33N 31°40' E 121°12'2 1.3
2015-May-25 02:09N 31°41' E 121°10'0 0.0
2015-May-24 21:33N 31°41' E 121°10'0 0.0
2015-May-24 20:27N 31°41' E 121°10'0 0.0
2015-May-24 19:27N 31°41' E 121°10'0 0.0
2015-May-24 18:30N 31°41' E 121°10'0 0.0
2015-May-24 17:33N 31°41' E 121°10'0 0.0
2015-May-24 16:30N 31°41' E 121°10'0 0.0
2015-May-24 15:30N 31°41' E 121°10'0 0.0
2015-May-24 14:30N 31°41' E 121°10'0 0.0
2015-May-24 13:33N 31°41' E 121°10'0 0.0
2015-May-24 12:27N 31°41' E 121°10'0 0.0
2015-May-24 11:33N 31°41' E 121°10'0 0.0
2015-May-24 10:30N 31°41' E 121°10'0 0.0
2015-May-24 09:24N 31°41' E 121°10'0 0.0
2015-May-24 08:33N 31°41' E 121°10'0 0.0
2015-May-24 07:30N 31°41' E 121°10'0 0.0
2015-May-24 06:30N 31°41' E 121°10'0 0.0
2015-May-24 05:33N 31°41' E 121°10'0 0.0
2015-May-24 04:33N 31°41' E 121°10'0 0.0
2015-May-24 03:30N 31°41' E 121°10'0 0.0
2015-May-24 02:30N 31°41' E 121°10'0 0.0
2015-May-24 01:30N 31°41' E 121°10'0 0.0
2015-May-24 00:30N 31°41' E 121°10'0 0.0
2015-May-23 23:30N 31°41' E 121°10'0 0.0
2015-May-23 22:18N 31°41' E 121°10'0 0.0
2015-May-23 21:33N 31°41' E 121°10'0 0.0
2015-May-23 20:33N 31°41' E 121°10'0 0.0
2015-May-23 19:33N 31°41' E 121°10'0 0.0
2015-May-23 18:27N 31°41' E 121°10'0 0.0
2015-May-23 17:33N 31°41' E 121°10'0 0.0
2015-May-23 16:33N 31°41' E 121°10'0 0.0
2015-May-23 15:33N 31°41' E 121°10'0 0.0
2015-May-23 14:33N 31°41' E 121°10'0 0.0
2015-May-23 13:24N 31°41' E 121°10'0 0.0
2015-May-23 12:27N 31°41' E 121°10'0 0.0
2015-May-23 11:33N 31°41' E 121°10'5 5.4
2015-May-23 10:33N 31°38' E 121°15'1211.6
2015-May-23 09:33N 31°30' E 121°25'1010.1
2015-May-23 08:33N 31°24' E 121°34'9 9.1
2015-May-23 07:33N 31°19' E 121°44'8 8.4
2015-May-23 06:33N 31°16' E 121°53'9 8.9
2015-May-23 05:33N 31°14' E 122°03'8 8.1
2015-May-23 04:33N 31°11' E 122°11'9 9.0
2015-May-23 03:33N 31°06' E 122°20'9 9.2
2015-May-23 02:33N 31°07' E 122°31'8 8.2
2015-May-23 01:31N 31°08' E 122°41'1 0.4
2015-May-23 00:10N 31°09' E 122°41'0 0.1
2015-May-22 23:28N 31°09' E 122°41'0 0.0
2015-May-22 22:28N 31°09' E 122°41'0 0.0
2015-May-22 21:22N 31°09' E 122°41'0 0.1
2015-May-22 20:22N 31°09' E 122°41'0 0.0
2015-May-22 13:25N 31°09' E 122°41'0 0.1
2015-May-22 12:25N 31°09' E 122°41'0 0.0
2015-May-22 11:31N 31°09' E 122°41'0 0.0
2015-May-22 08:28N 31°09' E 122°41'0 0.1
2015-May-22 07:34N 31°09' E 122°41'0 0.1
2015-May-22 06:28N 31°09' E 122°41'0 0.1
2015-May-22 05:28N 31°09' E 122°41'0 0.0
2015-May-22 03:13N 31°09' E 122°41'0 0.1
2015-May-22 00:13N 31°09' E 122°41'0 0.0
2015-May-21 22:31N 31°09' E 122°41'0 0.0
2015-May-21 21:34N 31°09' E 122°41'0 0.1
2015-May-21 20:31N 31°09' E 122°41'0 0.1
2015-May-21 19:28N 31°09' E 122°41'0 0.1
2015-May-21 18:31N 31°09' E 122°41'0 0.1
2015-May-21 12:04N 31°09' E 122°41'0 0.0
2015-May-21 10:28N 31°09' E 122°41'0 0.1
2015-May-21 06:31N 31°09' E 122°41'0 0.0
2015-May-20 17:04N 31°09' E 122°41'0 0.1
2015-May-20 14:25N 31°09' E 122°41'0 0.1
2015-May-20 13:28N 31°09' E 122°41'0 0.1
2015-May-20 10:19N 31°09' E 122°41'0 0.1
2015-May-20 09:31N 31°09' E 122°41'0 0.1
2015-May-20 08:31N 31°09' E 122°41'0 0.1
2015-May-20 07:22N 31°09' E 122°41'0 0.1
2015-May-20 06:31N 31°09' E 122°41'0 0.1
2015-May-20 05:25N 31°09' E 122°41'0 0.1
2015-May-20 04:34N 31°09' E 122°41'0 0.1
2015-May-20 03:28N 31°09' E 122°41'0 0.1
2015-May-20 02:07N 31°09' E 122°41'0 0.1
2015-May-20 01:31N 31°09' E 122°41'0 0.1
2015-May-19 21:19N 31°09' E 122°41'0 0.1
2015-May-19 20:22N 31°09' E 122°41'0 0.0
2015-May-19 19:16N 31°09' E 122°41'0 0.1
2015-May-19 18:34N 31°09' E 122°41'0 0.1
2015-May-19 17:19N 31°09' E 122°41'0 0.2
2015-May-19 16:34N 31°09' E 122°41'0 0.1
2015-May-19 14:28N 31°09' E 122°41'0 0.1
2015-May-19 12:22N 31°09' E 122°41'0 0.2
2015-May-19 11:34N 31°09' E 122°41'0 0.1
2015-May-19 10:31N 31°09' E 122°41'0 0.1
2015-May-19 09:34N 31°09' E 122°41'0 0.0
2015-May-19 08:34N 31°09' E 122°41'0 0.1
2015-May-19 06:13N 31°09' E 122°41'0 0.1
2015-May-19 05:25N 31°09' E 122°41'0 0.1
2015-May-19 03:19N 31°09' E 122°41'0 0.1
2015-May-18 23:10N 31°09' E 122°41'0 0.2
2015-May-18 22:31N 31°09' E 122°41'0 0.1
2015-May-18 21:16N 31°09' E 122°41'0 0.0
2015-May-18 20:28N 31°09' E 122°41'0 0.1
2015-May-18 19:28N 31°09' E 122°41'0 0.1
2015-May-18 13:07N 31°09' E 122°41'0 0.1
2015-May-18 12:19N 31°09' E 122°41'0 0.0
2015-May-17 21:10N 31°09' E 122°41'0 0.1
2015-May-17 20:22N 31°09' E 122°41'0 0.1
2015-May-17 18:04N 31°09' E 122°41'0 0.0
2015-May-17 17:28N 31°09' E 122°41'0 0.1
2015-May-17 11:34N 31°09' E 122°41'0 0.2
2015-May-17 10:31N 31°09' E 122°41'0 0.2
2015-May-17 09:31N 31°09' E 122°41'0 0.1
2015-May-17 08:31N 31°09' E 122°41'0 0.1
2015-May-17 07:31N 31°09' E 122°41'0 0.0
2015-May-17 06:31N 31°09' E 122°41'0 0.1
2015-May-17 05:34N 31°09' E 122°41'  

Dump ship's entire track history